Terminal Aerodrome Forecast
Issued by NWS

Home | Current Version | Previous Version | Text Only | Print | Product List | Glossary On
Versions: 1 2 3 4 5 6 7 8 9 10 11 12 13 14 15 16 17 18
743
FTAK31 PAJN 260532
TAFAWG
TAF
PAWG 260532Z 2606/2706 25004KT P6SM -SHRA FEW006 BKN040 OVC060
      TEMPO 2606/2609 3SM -SHRA BR SCT005 BKN020 OVC060
     FM260900 28005KT P6SM -SHRA FEW025 OVC035
     FM261600 31004KT P6SM -SHRA OVC030
     FM262000 31003KT P6SM VCSH SCT030 OVC050
     FM270300 VRB03KT P6SM VCSH BKN030 OVC050
      AMD LTD TO CLD VIS AND WIND 2606/2615=

USA.gov is the U.S. government's official web portal to all federal, state and local government web resources and services.